sensor_id;sensor_type;location;lat;lon;timestamp;P1;durP1;ratioP1;P2;durP2;ratioP2
18857;SDS011;9558;50.178;8.370;2022-10-12T00:01:30;8.55;;;0.77;;
18857;SDS011;9558;50.178;8.370;2022-10-12T00:03:56;0.77;;;0.45;;
18857;SDS011;9558;50.178;8.370;2022-10-12T00:06:23;0.25;;;0.25;;
18857;SDS011;9558;50.178;8.370;2022-10-12T00:08:51;9.65;;;0.40;;
18857;SDS011;9558;50.178;8.370;2022-10-12T00:11:20;0.45;;;0.45;;
18857;SDS011;9558;50.178;8.370;2022-10-12T00:13:49;0.68;;;0.30;;
18857;SDS011;9558;50.178;8.370;2022-10-12T00:16:18;0.75;;;0.32;;
18857;SDS011;9558;50.178;8.370;2022-10-12T00:18:48;0.45;;;0.20;;
18857;SDS011;9558;50.178;8.370;2022-10-12T00:21:15;5.35;;;0.40;;
18857;SDS011;9558;50.178;8.370;2022-10-12T00:23:42;0.10;;;0.10;;
18857;SDS011;9558;50.178;8.370;2022-10-12T00:26:10;0.35;;;0.20;;
18857;SDS011;9558;50.178;8.370;2022-10-12T00:28:38;0.63;;;0.40;;
18857;SDS011;9558;50.178;8.370;2022-10-12T00:31:05;4.95;;;0.30;;
18857;SDS011;9558;50.178;8.370;2022-10-12T00:33:34;0.28;;;0.28;;
18857;SDS011;9558;50.178;8.370;2022-10-12T00:36:09;0.77;;;0.30;;
18857;SDS011;9558;50.178;8.370;2022-10-12T00:38:36;0.40;;;0.40;;
18857;SDS011;9558;50.178;8.370;2022-10-12T00:41:02;0.10;;;0.10;;
18857;SDS011;9558;50.178;8.370;2022-10-12T00:43:30;2.08;;;0.20;;
18857;SDS011;9558;50.178;8.370;2022-10-12T00:46:00;1.27;;;0.22;;
18857;SDS011;9558;50.178;8.370;2022-10-12T00:48:30;0.20;;;0.20;;
18857;SDS011;9558;50.178;8.370;2022-10-12T00:50:59;2.22;;;0.28;;
18857;SDS011;9558;50.178;8.370;2022-10-12T00:53:27;0.15;;;0.10;;
18857;SDS011;9558;50.178;8.370;2022-10-12T00:56:00;0.47;;;0.38;;
18857;SDS011;9558;50.178;8.370;2022-10-12T00:58:30;0.00;;;0.00;;
18857;SDS011;9558;50.178;8.370;2022-10-12T01:00:57;0.20;;;0.20;;
18857;SDS011;9558;50.178;8.370;2022-10-12T01:03:26;0.22;;;0.22;;
18857;SDS011;9558;50.178;8.370;2022-10-12T01:05:53;3.22;;;0.75;;
18857;SDS011;9558;50.178;8.370;2022-10-12T01:08:21;2.85;;;0.60;;
18857;SDS011;9558;50.178;8.370;2022-10-12T01:10:48;2.58;;;0.35;;
18857;SDS011;9558;50.178;8.370;2022-10-12T01:13:14;0.57;;;0.30;;
18857;SDS011;9558;50.178;8.370;2022-10-12T01:15:44;2.50;;;0.32;;
18857;SDS011;9558;50.178;8.370;2022-10-12T01:18:20;2.10;;;0.30;;
18857;SDS011;9558;50.178;8.370;2022-10-12T01:20:56;0.17;;;0.10;;
18857;SDS011;9558;50.178;8.370;2022-10-12T01:32:29;3.40;;;0.20;;
18857;SDS011;9558;50.178;8.370;2022-10-12T01:35:00;2.47;;;0.40;;
18857;SDS011;9558;50.178;8.370;2022-10-12T01:37:36;0.15;;;0.15;;
18857;SDS011;9558;50.178;8.370;2022-10-12T01:40:13;0.20;;;0.20;;
18857;SDS011;9558;50.178;8.370;2022-10-12T01:42:45;0.25;;;0.17;;
18857;SDS011;9558;50.178;8.370;2022-10-12T01:45:15;0.20;;;0.10;;
18857;SDS011;9558;50.178;8.370;2022-10-12T01:47:44;0.03;;;0.03;;
18857;SDS011;9558;50.178;8.370;2022-10-12T01:50:13;0.25;;;0.10;;
18857;SDS011;9558;50.178;8.370;2022-10-12T01:52:44;8.00;;;0.25;;
18857;SDS011;9558;50.178;8.370;2022-10-12T01:55:24;2.15;;;0.60;;
18857;SDS011;9558;50.178;8.370;2022-10-12T01:58:09;0.30;;;0.30;;
18857;SDS011;9558;50.178;8.370;2022-10-12T02:00:48;0.30;;;0.10;;
18857;SDS011;9558;50.178;8.370;2022-10-12T02:03:25;0.28;;;0.28;;
18857;SDS011;9558;50.178;8.370;2022-10-12T02:05:59;0.25;;;0.17;;
18857;SDS011;9558;50.178;8.370;2022-10-12T02:08:29;0.20;;;0.20;;
18857;SDS011;9558;50.178;8.370;2022-10-12T02:10:59;6.10;;;0.20;;
18857;SDS011;9558;50.178;8.370;2022-10-12T02:13:32;0.47;;;0.32;;
18857;SDS011;9558;50.178;8.370;2022-10-12T02:16:05;0.15;;;0.13;;
18857;SDS011;9558;50.178;8.370;2022-10-12T02:18:35;2.88;;;0.43;;
18857;SDS011;9558;50.178;8.370;2022-10-12T02:21:05;0.00;;;0.00;;
18857;SDS011;9558;50.178;8.370;2022-10-12T02:23:33;0.20;;;0.10;;
18857;SDS011;9558;50.178;8.370;2022-10-12T02:30:58;0.00;;;0.00;;
18857;SDS011;9558;50.178;8.370;2022-10-12T02:33:30;0.77;;;0.32;;
18857;SDS011;9558;50.178;8.370;2022-10-12T02:36:01;0.35;;;0.32;;
18857;SDS011;9558;50.178;8.370;2022-10-12T02:38:31;3.92;;;0.32;;
18857;SDS011;9558;50.178;8.370;2022-10-12T02:41:03;0.30;;;0.17;;
18857;SDS011;9558;50.178;8.370;2022-10-12T02:43:32;0.40;;;0.15;;
18857;SDS011;9558;50.178;8.370;2022-10-12T02:46:03;0.38;;;0.10;;
18857;SDS011;9558;50.178;8.370;2022-10-12T02:48:34;0.00;;;0.00;;
18857;SDS011;9558;50.178;8.370;2022-10-12T02:51:03;2.10;;;0.43;;
18857;SDS011;9558;50.178;8.370;2022-10-12T02:53:32;3.95;;;0.82;;
18857;SDS011;9558;50.178;8.370;2022-10-12T02:56:00;0.40;;;0.38;;
18857;SDS011;9558;50.178;8.370;2022-10-12T02:58:29;0.77;;;0.75;;
18857;SDS011;9558;50.178;8.370;2022-10-12T03:00:56;1.65;;;0.43;;
18857;SDS011;9558;50.178;8.370;2022-10-12T03:03:23;0.32;;;0.28;;
18857;SDS011;9558;50.178;8.370;2022-10-12T03:05:50;0.32;;;0.22;;
18857;SDS011;9558;50.178;8.370;2022-10-12T03:08:17;0.30;;;0.17;;
18857;SDS011;9558;50.178;8.370;2022-10-12T03:10:43;4.03;;;0.70;;
18857;SDS011;9558;50.178;8.370;2022-10-12T03:13:10;0.10;;;0.10;;
18857;SDS011;9558;50.178;8.370;2022-10-12T03:15:36;0.13;;;0.13;;
18857;SDS011;9558;50.178;8.370;2022-10-12T03:18:03;0.17;;;0.17;;
18857;SDS011;9558;50.178;8.370;2022-10-12T03:20:29;0.30;;;0.15;;
18857;SDS011;9558;50.178;8.370;2022-10-12T03:22:57;0.40;;;0.35;;
18857;SDS011;9558;50.178;8.370;2022-10-12T03:25:24;0.30;;;0.30;;
18857;SDS011;9558;50.178;8.370;2022-10-12T03:27:50;3.45;;;0.85;;
18857;SDS011;9558;50.178;8.370;2022-10-12T03:30:17;0.17;;;0.10;;
18857;SDS011;9558;50.178;8.370;2022-10-12T03:32:43;0.32;;;0.28;;
18857;SDS011;9558;50.178;8.370;2022-10-12T03:35:10;0.20;;;0.20;;
18857;SDS011;9558;50.178;8.370;2022-10-12T03:37:36;1.25;;;0.47;;
18857;SDS011;9558;50.178;8.370;2022-10-12T03:40:05;0.20;;;0.20;;
18857;SDS011;9558;50.178;8.370;2022-10-12T03:42:32;0.10;;;0.10;;
18857;SDS011;9558;50.178;8.370;2022-10-12T03:44:59;0.10;;;0.10;;
18857;SDS011;9558;50.178;8.370;2022-10-12T03:47:25;0.32;;;0.28;;
18857;SDS011;9558;50.178;8.370;2022-10-12T03:49:52;0.57;;;0.20;;
18857;SDS011;9558;50.178;8.370;2022-10-12T03:52:18;0.30;;;0.30;;
18857;SDS011;9558;50.178;8.370;2022-10-12T03:54:45;0.68;;;0.13;;
18857;SDS011;9558;50.178;8.370;2022-10-12T03:57:12;2.20;;;0.32;;
18857;SDS011;9558;50.178;8.370;2022-10-12T03:59:39;0.10;;;0.10;;
18857;SDS011;9558;50.178;8.370;2022-10-12T04:02:05;5.07;;;0.52;;
18857;SDS011;9558;50.178;8.370;2022-10-12T04:04:32;0.60;;;0.40;;
18857;SDS011;9558;50.178;8.370;2022-10-12T04:06:58;0.20;;;0.20;;
18857;SDS011;9558;50.178;8.370;2022-10-12T04:09:25;0.82;;;0.43;;
18857;SDS011;9558;50.178;8.370;2022-10-12T04:11:51;0.35;;;0.35;;
18857;SDS011;9558;50.178;8.370;2022-10-12T04:14:19;0.60;;;0.22;;
18857;SDS011;9558;50.178;8.370;2022-10-12T04:16:46;1.52;;;0.80;;
18857;SDS011;9558;50.178;8.370;2022-10-12T04:19:12;3.40;;;1.77;;
18857;SDS011;9558;50.178;8.370;2022-10-12T04:21:40;6.13;;;0.85;;
18857;SDS011;9558;50.178;8.370;2022-10-12T04:24:06;0.80;;;0.60;;
18857;SDS011;9558;50.178;8.370;2022-10-12T04:26:33;0.45;;;0.40;;
18857;SDS011;9558;50.178;8.370;2022-10-12T04:28:59;0.30;;;0.30;;
18857;SDS011;9558;50.178;8.370;2022-10-12T04:31:27;0.95;;;0.60;;
18857;SDS011;9558;50.178;8.370;2022-10-12T04:33:55;0.60;;;0.38;;
18857;SDS011;9558;50.178;8.370;2022-10-12T04:36:22;0.88;;;0.55;;
18857;SDS011;9558;50.178;8.370;2022-10-12T04:38:48;1.20;;;0.30;;
18857;SDS011;9558;50.178;8.370;2022-10-12T04:41:15;0.32;;;0.22;;
18857;SDS011;9558;50.178;8.370;2022-10-12T04:43:41;0.32;;;0.32;;
18857;SDS011;9558;50.178;8.370;2022-10-12T04:46:08;1.10;;;0.73;;
18857;SDS011;9558;50.178;8.370;2022-10-12T04:48:36;0.47;;;0.35;;
18857;SDS011;9558;50.178;8.370;2022-10-12T04:51:03;0.52;;;0.32;;
18857;SDS011;9558;50.178;8.370;2022-10-12T04:53:30;0.32;;;0.10;;
18857;SDS011;9558;50.178;8.370;2022-10-12T04:56:00;8.80;;;0.93;;
18857;SDS011;9558;50.178;8.370;2022-10-12T04:58:27;0.20;;;0.20;;
18857;SDS011;9558;50.178;8.370;2022-10-12T05:00:53;2.45;;;0.60;;
18857;SDS011;9558;50.178;8.370;2022-10-12T05:03:20;0.30;;;0.15;;
18857;SDS011;9558;50.178;8.370;2022-10-12T05:05:48;0.52;;;0.30;;
18857;SDS011;9558;50.178;8.370;2022-10-12T05:10:41;2.30;;;0.32;;
18857;SDS011;9558;50.178;8.370;2022-10-12T05:13:07;1.52;;;0.68;;
18857;SDS011;9558;50.178;8.370;2022-10-12T05:15:34;2.00;;;0.45;;
18857;SDS011;9558;50.178;8.370;2022-10-12T05:18:00;0.52;;;0.38;;
18857;SDS011;9558;50.178;8.370;2022-10-12T05:20:27;0.63;;;0.50;;
18857;SDS011;9558;50.178;8.370;2022-10-12T05:22:54;0.98;;;0.88;;
18857;SDS011;9558;50.178;8.370;2022-10-12T05:25:22;2.65;;;0.85;;
18857;SDS011;9558;50.178;8.370;2022-10-12T05:27:48;1.25;;;0.70;;
18857;SDS011;9558;50.178;8.370;2022-10-12T05:30:15;0.82;;;0.55;;
18857;SDS011;9558;50.178;8.370;2022-10-12T05:32:41;0.65;;;0.55;;
18857;SDS011;9558;50.178;8.370;2022-10-12T05:35:09;0.82;;;0.55;;
18857;SDS011;9558;50.178;8.370;2022-10-12T05:37:35;0.35;;;0.32;;
18857;SDS011;9558;50.178;8.370;2022-10-12T05:40:04;2.58;;;0.98;;
18857;SDS011;9558;50.178;8.370;2022-10-12T05:42:31;4.13;;;0.85;;
18857;SDS011;9558;50.178;8.370;2022-10-12T05:44:58;0.88;;;0.40;;
18857;SDS011;9558;50.178;8.370;2022-10-12T05:47:25;0.85;;;0.50;;
18857;SDS011;9558;50.178;8.370;2022-10-12T05:49:51;0.68;;;0.47;;
18857;SDS011;9558;50.178;8.370;2022-10-12T05:52:18;0.25;;;0.25;;
18857;SDS011;9558;50.178;8.370;2022-10-12T05:54:45;0.52;;;0.47;;
18857;SDS011;9558;50.178;8.370;2022-10-12T05:57:13;10.45;;;0.70;;
18857;SDS011;9558;50.178;8.370;2022-10-12T05:59:39;0.52;;;0.52;;
18857;SDS011;9558;50.178;8.370;2022-10-12T06:02:06;2.67;;;0.70;;
18857;SDS011;9558;50.178;8.370;2022-10-12T06:04:32;1.05;;;0.82;;
18857;SDS011;9558;50.178;8.370;2022-10-12T06:06:59;2.33;;;0.70;;
18857;SDS011;9558;50.178;8.370;2022-10-12T06:09:25;1.27;;;0.40;;
18857;SDS011;9558;50.178;8.370;2022-10-12T06:11:52;3.28;;;1.17;;
18857;SDS011;9558;50.178;8.370;2022-10-12T06:14:20;2.65;;;0.88;;
18857;SDS011;9558;50.178;8.370;2022-10-12T06:16:46;3.45;;;0.88;;
18857;SDS011;9558;50.178;8.370;2022-10-12T06:19:13;0.65;;;0.40;;
18857;SDS011;9558;50.178;8.370;2022-10-12T06:21:39;1.85;;;0.60;;
18857;SDS011;9558;50.178;8.370;2022-10-12T06:24:06;4.80;;;0.77;;
18857;SDS011;9558;50.178;8.370;2022-10-12T06:26:32;0.75;;;0.52;;
18857;SDS011;9558;50.178;8.370;2022-10-12T06:28:59;0.73;;;0.55;;
18857;SDS011;9558;50.178;8.370;2022-10-12T06:31:27;0.65;;;0.30;;
18857;SDS011;9558;50.178;8.370;2022-10-12T06:33:54;0.50;;;0.50;;
18857;SDS011;9558;50.178;8.370;2022-10-12T06:36:21;1.10;;;0.50;;
18857;SDS011;9558;50.178;8.370;2022-10-12T06:38:48;0.30;;;0.30;;
18857;SDS011;9558;50.178;8.370;2022-10-12T06:41:14;2.33;;;0.68;;
18857;SDS011;9558;50.178;8.370;2022-10-12T06:43:40;2.83;;;0.90;;
18857;SDS011;9558;50.178;8.370;2022-10-12T06:46:07;0.50;;;0.20;;
18857;SDS011;9558;50.178;8.370;2022-10-12T06:48:35;3.10;;;0.70;;
18857;SDS011;9558;50.178;8.370;2022-10-12T06:51:02;0.90;;;0.30;;
18857;SDS011;9558;50.178;8.370;2022-10-12T06:53:29;2.03;;;0.60;;
18857;SDS011;9558;50.178;8.370;2022-10-12T06:55:57;1.58;;;1.27;;
18857;SDS011;9558;50.178;8.370;2022-10-12T06:58:23;1.02;;;0.50;;
18857;SDS011;9558;50.178;8.370;2022-10-12T07:00:50;0.95;;;0.45;;
18857;SDS011;9558;50.178;8.370;2022-10-12T07:03:17;0.47;;;0.47;;
18857;SDS011;9558;50.178;8.370;2022-10-12T07:05:45;2.50;;;0.60;;
18857;SDS011;9558;50.178;8.370;2022-10-12T07:08:12;0.88;;;0.68;;
18857;SDS011;9558;50.178;8.370;2022-10-12T07:10:43;0.95;;;0.40;;
18857;SDS011;9558;50.178;8.370;2022-10-12T07:13:11;0.73;;;0.55;;
18857;SDS011;9558;50.178;8.370;2022-10-12T07:15:38;0.20;;;0.20;;
18857;SDS011;9558;50.178;8.370;2022-10-12T07:18:04;1.15;;;0.40;;
18857;SDS011;9558;50.178;8.370;2022-10-12T07:20:31;0.73;;;0.47;;
18857;SDS011;9558;50.178;8.370;2022-10-12T07:22:59;1.20;;;1.10;;
18857;SDS011;9558;50.178;8.370;2022-10-12T07:25:25;0.73;;;0.50;;
18857;SDS011;9558;50.178;8.370;2022-10-12T07:27:52;2.42;;;0.70;;
18857;SDS011;9558;50.178;8.370;2022-10-12T07:30:18;6.10;;;1.20;;
18857;SDS011;9558;50.178;8.370;2022-10-12T07:32:44;1.27;;;0.90;;
18857;SDS011;9558;50.178;8.370;2022-10-12T07:35:11;1.63;;;0.80;;
18857;SDS011;9558;50.178;8.370;2022-10-12T07:37:38;0.88;;;0.57;;
18857;SDS011;9558;50.178;8.370;2022-10-12T07:40:06;3.97;;;0.82;;
18857;SDS011;9558;50.178;8.370;2022-10-12T07:42:33;1.60;;;0.60;;
18857;SDS011;9558;50.178;8.370;2022-10-12T07:45:00;2.85;;;1.02;;
18857;SDS011;9558;50.178;8.370;2022-10-12T07:47:26;1.20;;;0.47;;
18857;SDS011;9558;50.178;8.370;2022-10-12T07:49:53;4.80;;;2.13;;
18857;SDS011;9558;50.178;8.370;2022-10-12T07:52:19;2.83;;;1.70;;
18857;SDS011;9558;50.178;8.370;2022-10-12T07:54:45;5.28;;;1.70;;
18857;SDS011;9558;50.178;8.370;2022-10-12T07:57:13;1.90;;;1.10;;
18857;SDS011;9558;50.178;8.370;2022-10-12T07:59:40;1.48;;;0.82;;
18857;SDS011;9558;50.178;8.370;2022-10-12T08:02:07;1.30;;;0.80;;
18857;SDS011;9558;50.178;8.370;2022-10-12T08:04:34;0.73;;;0.50;;
18857;SDS011;9558;50.178;8.370;2022-10-12T08:07:00;1.40;;;0.80;;
18857;SDS011;9558;50.178;8.370;2022-10-12T08:09:27;2.47;;;0.93;;
18857;SDS011;9558;50.178;8.370;2022-10-12T08:11:53;0.40;;;0.40;;
18857;SDS011;9558;50.178;8.370;2022-10-12T08:14:21;1.35;;;0.70;;
18857;SDS011;9558;50.178;8.370;2022-10-12T08:16:48;2.00;;;1.00;;
18857;SDS011;9558;50.178;8.370;2022-10-12T08:19:14;1.00;;;0.80;;
18857;SDS011;9558;50.178;8.370;2022-10-12T08:21:41;1.10;;;0.73;;
18857;SDS011;9558;50.178;8.370;2022-10-12T08:24:08;2.92;;;0.95;;
18857;SDS011;9558;50.178;8.370;2022-10-12T08:26:34;3.67;;;0.73;;
18857;SDS011;9558;50.178;8.370;2022-10-12T08:29:01;1.48;;;0.70;;
18857;SDS011;9558;50.178;8.370;2022-10-12T08:31:30;0.70;;;0.60;;
18857;SDS011;9558;50.178;8.370;2022-10-12T08:33:57;1.83;;;0.90;;
18857;SDS011;9558;50.178;8.370;2022-10-12T08:38:51;1.45;;;0.70;;
18857;SDS011;9558;50.178;8.370;2022-10-12T08:41:22;4.32;;;1.17;;
18857;SDS011;9558;50.178;8.370;2022-10-12T08:46:54;2.38;;;1.00;;
18857;SDS011;9558;50.178;8.370;2022-10-12T08:49:23;2.50;;;1.00;;
18857;SDS011;9558;50.178;8.370;2022-10-12T08:51:52;1.23;;;0.88;;
18857;SDS011;9558;50.178;8.370;2022-10-12T08:54:21;2.85;;;0.88;;
18857;SDS011;9558;50.178;8.370;2022-10-12T08:56:50;1.60;;;0.93;;
18857;SDS011;9558;50.178;8.370;2022-10-12T08:59:18;1.85;;;0.90;;
18857;SDS011;9558;50.178;8.370;2022-10-12T09:01:49;1.27;;;0.80;;
18857;SDS011;9558;50.178;8.370;2022-10-12T09:04:37;4.18;;;1.00;;
18857;SDS011;9558;50.178;8.370;2022-10-12T09:10:28;0.60;;;0.60;;
18857;SDS011;9558;50.178;8.370;2022-10-12T09:13:08;1.98;;;0.77;;
18857;SDS011;9558;50.178;8.370;2022-10-12T09:15:47;4.13;;;0.80;;
18857;SDS011;9558;50.178;8.370;2022-10-12T09:18:20;1.67;;;0.88;;
18857;SDS011;9558;50.178;8.370;2022-10-12T09:20:51;2.47;;;0.70;;
18857;SDS011;9558;50.178;8.370;2022-10-12T09:23:24;1.95;;;0.80;;
18857;SDS011;9558;50.178;8.370;2022-10-12T09:25:51;3.63;;;1.35;;
18857;SDS011;9558;50.178;8.370;2022-10-12T09:28:22;1.38;;;0.98;;
18857;SDS011;9558;50.178;8.370;2022-10-12T09:30:58;2.00;;;0.93;;
18857;SDS011;9558;50.178;8.370;2022-10-12T09:33:32;4.22;;;2.03;;
18857;SDS011;9558;50.178;8.370;2022-10-12T09:36:05;3.05;;;1.58;;
18857;SDS011;9558;50.178;8.370;2022-10-12T09:38:35;3.03;;;1.40;;
18857;SDS011;9558;50.178;8.370;2022-10-12T09:41:02;2.25;;;1.30;;
18857;SDS011;9558;50.178;8.370;2022-10-12T09:43:29;2.70;;;1.73;;
18857;SDS011;9558;50.178;8.370;2022-10-12T09:45:56;5.85;;;1.90;;
18857;SDS011;9558;50.178;8.370;2022-10-12T09:48:30;3.13;;;1.67;;
18857;SDS011;9558;50.178;8.370;2022-10-12T09:50:57;3.25;;;1.58;;
18857;SDS011;9558;50.178;8.370;2022-10-12T09:53:31;3.00;;;1.73;;
18857;SDS011;9558;50.178;8.370;2022-10-12T09:56:02;2.05;;;1.50;;
18857;SDS011;9558;50.178;8.370;2022-10-12T09:58:33;3.97;;;1.83;;
18857;SDS011;9558;50.178;8.370;2022-10-12T10:01:10;2.40;;;1.83;;
18857;SDS011;9558;50.178;8.370;2022-10-12T10:03:43;2.05;;;1.42;;
18857;SDS011;9558;50.178;8.370;2022-10-12T10:06:10;14.75;;;2.28;;
18857;SDS011;9558;50.178;8.370;2022-10-12T10:08:41;2.53;;;1.73;;
18857;SDS011;9558;50.178;8.370;2022-10-12T10:11:12;5.95;;;2.00;;
18857;SDS011;9558;50.178;8.370;2022-10-12T10:13:48;4.90;;;2.10;;
18857;SDS011;9558;50.178;8.370;2022-10-12T10:16:19;4.20;;;1.67;;
18857;SDS011;9558;50.178;8.370;2022-10-12T10:18:48;2.50;;;1.90;;
18857;SDS011;9558;50.178;8.370;2022-10-12T10:21:23;6.50;;;1.95;;
18857;SDS011;9558;50.178;8.370;2022-10-12T10:23:53;2.90;;;1.73;;
18857;SDS011;9558;50.178;8.370;2022-10-12T10:26:22;3.72;;;2.33;;
18857;SDS011;9558;50.178;8.370;2022-10-12T10:28:54;4.55;;;1.85;;
18857;SDS011;9558;50.178;8.370;2022-10-12T10:31:23;2.63;;;1.55;;
18857;SDS011;9558;50.178;8.370;2022-10-12T10:34:02;3.10;;;1.98;;
18857;SDS011;9558;50.178;8.370;2022-10-12T10:36:36;1.92;;;1.40;;
18857;SDS011;9558;50.178;8.370;2022-10-12T10:39:13;3.85;;;1.67;;
18857;SDS011;9558;50.178;8.370;2022-10-12T10:41:43;3.97;;;2.20;;
18857;SDS011;9558;50.178;8.370;2022-10-12T10:44:17;4.57;;;2.33;;
18857;SDS011;9558;50.178;8.370;2022-10-12T10:46:49;5.20;;;1.83;;
18857;SDS011;9558;50.178;8.370;2022-10-12T10:49:21;2.17;;;1.83;;
18857;SDS011;9558;50.178;8.370;2022-10-12T10:51:53;2.05;;;1.50;;
18857;SDS011;9558;50.178;8.370;2022-10-12T10:54:26;3.28;;;1.67;;
18857;SDS011;9558;50.178;8.370;2022-10-12T10:56:56;2.38;;;1.83;;
18857;SDS011;9558;50.178;8.370;2022-10-12T10:59:33;2.17;;;1.48;;
18857;SDS011;9558;50.178;8.370;2022-10-12T11:02:07;2.40;;;1.33;;
18857;SDS011;9558;50.178;8.370;2022-10-12T11:04:41;4.25;;;1.58;;
18857;SDS011;9558;50.178;8.370;2022-10-12T11:07:13;4.50;;;1.80;;
18857;SDS011;9558;50.178;8.370;2022-10-12T11:09:48;1.80;;;1.25;;
18857;SDS011;9558;50.178;8.370;2022-10-12T11:12:19;2.50;;;1.38;;
18857;SDS011;9558;50.178;8.370;2022-10-12T11:14:52;1.30;;;1.15;;
18857;SDS011;9558;50.178;8.370;2022-10-12T11:17:22;2.60;;;1.45;;
18857;SDS011;9558;50.178;8.370;2022-10-12T11:19:56;1.95;;;1.08;;
18857;SDS011;9558;50.178;8.370;2022-10-12T11:22:31;3.00;;;1.92;;
18857;SDS011;9558;50.178;8.370;2022-10-12T11:25:06;1.85;;;1.40;;
18857;SDS011;9558;50.178;8.370;2022-10-12T11:27:45;4.50;;;1.90;;
18857;SDS011;9558;50.178;8.370;2022-10-12T11:30:16;3.80;;;1.92;;
18857;SDS011;9558;50.178;8.370;2022-10-12T11:32:44;2.65;;;1.27;;
18857;SDS011;9558;50.178;8.370;2022-10-12T11:35:15;1.80;;;1.40;;
18857;SDS011;9558;50.178;8.370;2022-10-12T11:37:52;5.03;;;1.50;;
18857;SDS011;9558;50.178;8.370;2022-10-12T11:40:25;3.35;;;1.60;;
18857;SDS011;9558;50.178;8.370;2022-10-12T11:42:54;5.47;;;1.30;;
18857;SDS011;9558;50.178;8.370;2022-10-12T11:45:29;3.05;;;1.70;;
18857;SDS011;9558;50.178;8.370;2022-10-12T11:48:06;3.38;;;1.83;;
18857;SDS011;9558;50.178;8.370;2022-10-12T11:50:37;1.90;;;1.20;;
18857;SDS011;9558;50.178;8.370;2022-10-12T11:53:07;2.10;;;1.38;;
18857;SDS011;9558;50.178;8.370;2022-10-12T11:55:47;4.25;;;1.88;;
18857;SDS011;9558;50.178;8.370;2022-10-12T11:58:23;2.35;;;1.33;;
18857;SDS011;9558;50.178;8.370;2022-10-12T12:00:54;4.43;;;1.58;;
18857;SDS011;9558;50.178;8.370;2022-10-12T12:03:32;4.07;;;1.55;;
18857;SDS011;9558;50.178;8.370;2022-10-12T12:09:19;2.30;;;1.75;;
18857;SDS011;9558;50.178;8.370;2022-10-12T12:12:10;4.65;;;1.75;;
18857;SDS011;9558;50.178;8.370;2022-10-12T12:14:47;3.08;;;1.25;;
18857;SDS011;9558;50.178;8.370;2022-10-12T12:17:27;3.63;;;1.98;;
18857;SDS011;9558;50.178;8.370;2022-10-12T12:19:55;2.55;;;1.65;;
18857;SDS011;9558;50.178;8.370;2022-10-12T12:22:23;3.08;;;1.45;;
18857;SDS011;9558;50.178;8.370;2022-10-12T12:25:02;2.75;;;1.67;;
18857;SDS011;9558;50.178;8.370;2022-10-12T12:27:40;2.03;;;1.65;;
18857;SDS011;9558;50.178;8.370;2022-10-12T12:30:22;2.78;;;1.65;;
18857;SDS011;9558;50.178;8.370;2022-10-12T12:32:53;3.40;;;1.60;;
18857;SDS011;9558;50.178;8.370;2022-10-12T12:35:23;2.30;;;1.38;;
18857;SDS011;9558;50.178;8.370;2022-10-12T12:37:59;2.17;;;1.40;;
18857;SDS011;9558;50.178;8.370;2022-10-12T12:40:28;6.38;;;1.95;;
18857;SDS011;9558;50.178;8.370;2022-10-12T12:45:52;5.00;;;1.90;;
18857;SDS011;9558;50.178;8.370;2022-10-12T12:51:22;5.40;;;1.80;;
18857;SDS011;9558;50.178;8.370;2022-10-12T12:53:52;3.33;;;1.70;;
18857;SDS011;9558;50.178;8.370;2022-10-12T12:56:25;7.03;;;2.17;;
18857;SDS011;9558;50.178;8.370;2022-10-12T12:59:07;2.60;;;1.40;;
18857;SDS011;9558;50.178;8.370;2022-10-12T13:01:53;1.83;;;1.40;;
18857;SDS011;9558;50.178;8.370;2022-10-12T13:04:46;1.58;;;1.27;;
18857;SDS011;9558;50.178;8.370;2022-10-12T13:07:41;3.00;;;1.50;;
18857;SDS011;9558;50.178;8.370;2022-10-12T13:10:23;4.57;;;1.85;;
18857;SDS011;9558;50.178;8.370;2022-10-12T13:13:01;4.43;;;1.65;;
18857;SDS011;9558;50.178;8.370;2022-10-12T13:15:40;4.97;;;1.90;;
18857;SDS011;9558;50.178;8.370;2022-10-12T13:18:23;7.65;;;2.13;;
18857;SDS011;9558;50.178;8.370;2022-10-12T13:21:12;2.58;;;1.42;;
18857;SDS011;9558;50.178;8.370;2022-10-12T13:23:43;3.15;;;1.80;;
18857;SDS011;9558;50.178;8.370;2022-10-12T13:26:11;4.45;;;2.22;;
18857;SDS011;9558;50.178;8.370;2022-10-12T13:28:43;2.08;;;1.52;;
18857;SDS011;9558;50.178;8.370;2022-10-12T13:31:15;3.17;;;1.70;;
18857;SDS011;9558;50.178;8.370;2022-10-12T13:33:47;2.33;;;1.45;;
18857;SDS011;9558;50.178;8.370;2022-10-12T13:36:23;10.00;;;2.13;;
18857;SDS011;9558;50.178;8.370;2022-10-12T13:38:53;3.67;;;2.10;;
18857;SDS011;9558;50.178;8.370;2022-10-12T13:41:21;4.72;;;1.60;;
18857;SDS011;9558;50.178;8.370;2022-10-12T13:43:50;4.00;;;2.10;;
18857;SDS011;9558;50.178;8.370;2022-10-12T13:46:38;5.18;;;1.95;;
18857;SDS011;9558;50.178;8.370;2022-10-12T13:49:13;3.35;;;2.08;;
18857;SDS011;9558;50.178;8.370;2022-10-12T13:51:42;2.90;;;1.90;;
18857;SDS011;9558;50.178;8.370;2022-10-12T13:54:19;2.88;;;2.22;;
18857;SDS011;9558;50.178;8.370;2022-10-12T13:56:48;5.03;;;1.90;;
18857;SDS011;9558;50.178;8.370;2022-10-12T13:59:19;3.05;;;1.70;;
18857;SDS011;9558;50.178;8.370;2022-10-12T14:01:50;3.15;;;1.70;;
18857;SDS011;9558;50.178;8.370;2022-10-12T14:04:19;4.20;;;2.15;;
18857;SDS011;9558;50.178;8.370;2022-10-12T14:06:46;2.22;;;1.77;;
18857;SDS011;9558;50.178;8.370;2022-10-12T14:09:18;4.57;;;2.00;;
18857;SDS011;9558;50.178;8.370;2022-10-12T14:11:49;2.97;;;1.75;;
18857;SDS011;9558;50.178;8.370;2022-10-12T14:14:17;3.47;;;1.90;;
18857;SDS011;9558;50.178;8.370;2022-10-12T14:16:52;3.92;;;1.80;;
18857;SDS011;9558;50.178;8.370;2022-10-12T14:19:20;3.05;;;2.00;;
18857;SDS011;9558;50.178;8.370;2022-10-12T14:21:57;3.67;;;2.13;;
18857;SDS011;9558;50.178;8.370;2022-10-12T14:24:25;4.00;;;2.45;;
18857;SDS011;9558;50.178;8.370;2022-10-12T14:26:52;5.22;;;1.95;;
18857;SDS011;9558;50.178;8.370;2022-10-12T14:29:24;3.97;;;2.13;;
18857;SDS011;9558;50.178;8.370;2022-10-12T14:31:55;2.65;;;1.70;;
18857;SDS011;9558;50.178;8.370;2022-10-12T14:34:33;3.05;;;1.90;;
18857;SDS011;9558;50.178;8.370;2022-10-12T14:37:16;3.75;;;1.80;;
18857;SDS011;9558;50.178;8.370;2022-10-12T14:39:47;5.70;;;2.20;;
18857;SDS011;9558;50.178;8.370;2022-10-12T14:42:17;5.65;;;2.33;;
18857;SDS011;9558;50.178;8.370;2022-10-12T14:44:45;4.25;;;2.33;;
18857;SDS011;9558;50.178;8.370;2022-10-12T14:47:15;5.53;;;2.65;;
18857;SDS011;9558;50.178;8.370;2022-10-12T14:49:45;4.38;;;2.53;;
18857;SDS011;9558;50.178;8.370;2022-10-12T14:52:14;4.53;;;2.10;;
18857;SDS011;9558;50.178;8.370;2022-10-12T14:54:47;6.15;;;2.70;;
18857;SDS011;9558;50.178;8.370;2022-10-12T14:57:15;5.30;;;2.45;;
18857;SDS011;9558;50.178;8.370;2022-10-12T14:59:42;8.65;;;2.47;;
18857;SDS011;9558;50.178;8.370;2022-10-12T15:02:11;5.07;;;2.30;;
18857;SDS011;9558;50.178;8.370;2022-10-12T15:04:43;4.40;;;2.40;;
18857;SDS011;9558;50.178;8.370;2022-10-12T15:07:14;5.30;;;2.70;;
18857;SDS011;9558;50.178;8.370;2022-10-12T15:09:41;5.38;;;2.50;;
18857;SDS011;9558;50.178;8.370;2022-10-12T15:12:09;4.25;;;2.20;;
18857;SDS011;9558;50.178;8.370;2022-10-12T15:14:37;3.92;;;2.22;;
18857;SDS011;9558;50.178;8.370;2022-10-12T15:17:04;4.95;;;2.60;;
18857;SDS011;9558;50.178;8.370;2022-10-12T15:19:31;5.30;;;2.72;;
18857;SDS011;9558;50.178;8.370;2022-10-12T15:21:58;6.05;;;2.42;;
18857;SDS011;9558;50.178;8.370;2022-10-12T15:24:24;5.47;;;2.28;;
18857;SDS011;9558;50.178;8.370;2022-10-12T15:26:51;5.15;;;2.35;;
18857;SDS011;9558;50.178;8.370;2022-10-12T15:29:17;3.92;;;2.50;;
18857;SDS011;9558;50.178;8.370;2022-10-12T15:31:44;9.00;;;2.92;;
18857;SDS011;9558;50.178;8.370;2022-10-12T15:34:11;4.30;;;2.50;;
18857;SDS011;9558;50.178;8.370;2022-10-12T15:36:39;7.15;;;2.70;;
18857;SDS011;9558;50.178;8.370;2022-10-12T15:39:06;14.13;;;2.88;;
18857;SDS011;9558;50.178;8.370;2022-10-12T15:41:32;3.55;;;2.30;;
18857;SDS011;9558;50.178;8.370;2022-10-12T15:43:59;5.35;;;2.60;;
18857;SDS011;9558;50.178;8.370;2022-10-12T15:46:25;4.68;;;3.17;;
18857;SDS011;9558;50.178;8.370;2022-10-12T15:48:52;5.57;;;2.75;;
18857;SDS011;9558;50.178;8.370;2022-10-12T15:51:19;6.10;;;2.85;;